createdAt,value
2022-10-16T00:01:17.182Z,101970.88
2022-10-16T00:03:44.896Z,101958.75
2022-10-16T00:06:12.263Z,101964.56
2022-10-16T00:08:39.819Z,101967.88
2022-10-16T00:11:11.905Z,101963.78
2022-10-16T00:13:41.071Z,101963.97
2022-10-16T00:16:08.736Z,101964.16
2022-10-16T00:18:38.327Z,101970.22
2022-10-16T00:21:10.059Z,101971.75
2022-10-16T00:23:38.309Z,101974.06
2022-10-16T00:26:07.126Z,101983.16
2022-10-16T00:28:36.660Z,101979.75
2022-10-16T00:31:05.103Z,101972.31
2022-10-16T00:33:32.525Z,101976.63
2022-10-16T00:36:00.284Z,101981.63
2022-10-16T00:38:27.696Z,101978.28
2022-10-16T00:40:55.382Z,101984.13
2022-10-16T00:43:41.428Z,101989.66
2022-10-16T00:46:15.589Z,101986.94
2022-10-16T00:48:43.701Z,101984.69
2022-10-16T00:51:10.991Z,101990.81
2022-10-16T00:53:38.789Z,101987.69
2022-10-16T00:56:06.280Z,101987.13
2022-10-16T00:58:33.722Z,101991.25
2022-10-16T01:01:01.177Z,101993.41
2022-10-16T01:03:33.242Z,101989.41
2022-10-16T01:06:09.128Z,101993.88
2022-10-16T01:08:58.807Z,101985.25
2022-10-16T01:11:38.412Z,101991.22
2022-10-16T01:14:16.534Z,101992.34
2022-10-16T01:17:04.174Z,101990.75
2022-10-16T01:19:32.236Z,101988.47
2022-10-16T01:21:59.658Z,101987.34
2022-10-16T01:24:29.991Z,101987.84
2022-10-16T01:27:03.667Z,101991.56
2022-10-16T01:29:51.469Z,101984.06
2022-10-16T01:32:24.956Z,101989.41
2022-10-16T01:34:54.090Z,101986.72
2022-10-16T01:37:33.410Z,101980.66
2022-10-16T01:40:01.743Z,101984.44
2022-10-16T01:42:31.622Z,101981.50
2022-10-16T01:44:58.926Z,101996.16
2022-10-16T01:47:26.852Z,101989.53
2022-10-16T01:49:55.213Z,101994.31
2022-10-16T01:52:25.040Z,101996.72
2022-10-16T01:54:53.780Z,102000.41
2022-10-16T01:57:21.509Z,102000.97
2022-10-16T01:59:51.659Z,102008.63
2022-10-16T02:02:19.080Z,102005.25
2022-10-16T02:04:47.765Z,102008.34
2022-10-16T02:07:15.660Z,102008.97
2022-10-16T02:09:42.940Z,102009.53
2022-10-16T02:12:29.722Z,102008.25
2022-10-16T02:14:57.099Z,102007.03
2022-10-16T02:17:24.590Z,102012.13
2022-10-16T02:19:52.523Z,102017.75
2022-10-16T02:22:23.305Z,102021.47
2022-10-16T02:25:11.785Z,102019.28
2022-10-16T02:27:45.164Z,102016.66
2022-10-16T02:30:14.702Z,102018.00
2022-10-16T02:32:43.199Z,102022.06
2022-10-16T02:35:10.667Z,102027.56
2022-10-16T02:37:38.197Z,102036.44
2022-10-16T02:40:08.368Z,102023.16
2022-10-16T02:42:37.616Z,102026.72
2022-10-16T02:45:05.770Z,102032.28
2022-10-16T02:47:34.201Z,102032.94
2022-10-16T02:50:01.815Z,102033.06
2022-10-16T02:52:29.745Z,102038.66
2022-10-16T02:54:57.264Z,102047.81
2022-10-16T02:57:25.058Z,102046.97
2022-10-16T02:59:52.539Z,102046.69
2022-10-16T03:02:20.372Z,102044.88
2022-10-16T03:04:47.662Z,102042.03
2022-10-16T03:07:18.701Z,102050.81
2022-10-16T03:09:46.039Z,102050.97
2022-10-16T03:12:15.057Z,102059.28
2022-10-16T03:14:42.643Z,102051.22
2022-10-16T03:17:09.948Z,102055.44
2022-10-16T03:19:38.613Z,102067.88
2022-10-16T03:22:06.023Z,102050.97
2022-10-16T03:24:33.307Z,102052.16
2022-10-16T03:27:01.182Z,102054.78
2022-10-16T03:29:30.455Z,102050.19
2022-10-16T03:31:57.928Z,102044.31
2022-10-16T03:34:26.835Z,102045.53
2022-10-16T03:36:54.074Z,102047.34
2022-10-16T03:39:21.531Z,102047.06
2022-10-16T03:41:48.872Z,102050.34
2022-10-16T03:44:16.573Z,102045.91
2022-10-16T03:46:43.902Z,102043.47
2022-10-16T03:49:11.204Z,102044.16
2022-10-16T03:51:39.077Z,102042.31
2022-10-16T03:54:06.448Z,102045.91
2022-10-16T03:56:34.111Z,102048.84
2022-10-16T03:59:02.387Z,102047.59
2022-10-16T04:01:29.839Z,102044.84
2022-10-16T04:03:57.092Z,102051.63
2022-10-16T04:06:24.934Z,102046.47
2022-10-16T04:08:52.567Z,102054.91
2022-10-16T04:11:19.982Z,102047.88
2022-10-16T04:13:47.332Z,102066.00
2022-10-16T04:16:17.608Z,102061.88
2022-10-16T04:18:44.938Z,102061.88
2022-10-16T04:21:16.679Z,102068.59
2022-10-16T04:23:45.314Z,102067.75
2022-10-16T04:26:12.689Z,102068.28
2022-10-16T04:28:40.169Z,102073.09
2022-10-16T04:31:07.654Z,102071.03
2022-10-16T04:33:35.023Z,102079.81
2022-10-16T04:36:02.508Z,102076.16
2022-10-16T04:38:29.961Z,102080.03
2022-10-16T04:40:57.267Z,102075.63
2022-10-16T04:43:25.190Z,102077.94
2022-10-16T04:45:52.932Z,102086.75
2022-10-16T04:48:20.295Z,102085.44
2022-10-16T04:50:51.739Z,102084.81
2022-10-16T04:53:23.469Z,102088.97
2022-10-16T04:55:51.068Z,102105.09
2022-10-16T04:58:18.997Z,102100.25
2022-10-16T05:00:47.342Z,102110.97
2022-10-16T05:03:14.903Z,102109.50
2022-10-16T05:05:46.117Z,102110.84
2022-10-16T05:08:13.820Z,102112.06
2022-10-16T05:10:44.141Z,102111.69
2022-10-16T05:13:12.964Z,102116.22
2022-10-16T05:15:40.364Z,102118.28
2022-10-16T05:18:07.865Z,102121.81
2022-10-16T05:20:35.192Z,102124.00
2022-10-16T05:23:02.651Z,102124.50
2022-10-16T05:25:30.181Z,102127.25
2022-10-16T05:27:57.567Z,102130.72
2022-10-16T05:30:25.050Z,102133.91
2022-10-16T05:32:53.388Z,102134.44
2022-10-16T05:35:20.968Z,102134.06
2022-10-16T05:37:48.563Z,102143.41
2022-10-16T05:40:17.130Z,102136.63
2022-10-16T05:42:44.396Z,102137.81
2022-10-16T05:45:12.532Z,102147.28
2022-10-16T05:47:39.899Z,102137.91
2022-10-16T05:50:08.343Z,102135.09
2022-10-16T05:52:35.873Z,102142.50
2022-10-16T05:55:03.580Z,102145.69
2022-10-16T05:57:31.145Z,102141.69
2022-10-16T05:59:58.701Z,102151.13
2022-10-16T06:02:26.047Z,102156.31
2022-10-16T06:04:54.903Z,102155.47
2022-10-16T06:07:23.458Z,102161.03
2022-10-16T06:09:51.869Z,102165.50
2022-10-16T06:12:19.395Z,102164.31
2022-10-16T06:14:49.804Z,102173.56
2022-10-16T06:17:20.149Z,102172.22
2022-10-16T06:19:48.134Z,102173.66
2022-10-16T06:22:15.465Z,102181.28
2022-10-16T06:24:44.245Z,102184.41
2022-10-16T06:27:11.537Z,102184.97
2022-10-16T06:29:38.942Z,102180.03
2022-10-16T06:32:06.420Z,102176.53
2022-10-16T06:34:35.251Z,102172.00
2022-10-16T06:37:02.915Z,102177.41
2022-10-16T06:39:32.713Z,102177.69
2022-10-16T06:44:38.110Z,102169.22
2022-10-16T06:47:05.630Z,102173.69
2022-10-16T06:49:33.245Z,102168.38
2022-10-16T06:52:00.879Z,102164.09
2022-10-16T06:54:28.504Z,102170.03
2022-10-16T06:57:01.056Z,102163.50
2022-10-16T06:59:29.114Z,102169.88
2022-10-16T07:01:56.807Z,102173.41
2022-10-16T07:04:24.210Z,102179.44
2022-10-16T07:06:52.801Z,102177.28
2022-10-16T07:09:20.493Z,102175.53
2022-10-16T07:11:50.272Z,102178.13
2022-10-16T07:14:18.526Z,102176.88
2022-10-16T07:16:46.203Z,102178.41
2022-10-16T07:19:15.590Z,102179.59
2022-10-16T07:21:43.476Z,102183.34
2022-10-16T07:24:15.148Z,102171.41
2022-10-16T07:26:43.304Z,102178.34
2022-10-16T07:29:17.894Z,102177.44
2022-10-16T07:31:45.548Z,102176.94
2022-10-16T07:34:13.326Z,102172.69
2022-10-16T07:39:14.687Z,102177.47
2022-10-16T07:41:42.802Z,102188.50
2022-10-16T07:44:10.593Z,102174.63
2022-10-16T07:46:38.232Z,102180.03
2022-10-16T07:49:05.575Z,102181.16
2022-10-16T07:51:33.045Z,102175.38
2022-10-16T07:54:00.586Z,102181.34
2022-10-16T07:56:28.241Z,102172.94
2022-10-16T07:58:57.336Z,102161.38
2022-10-16T08:01:24.779Z,102165.69
2022-10-16T08:03:52.552Z,102166.84
2022-10-16T08:06:23.571Z,102167.28
2022-10-16T08:08:54.418Z,102167.81
2022-10-16T08:11:21.744Z,102155.47
2022-10-16T08:13:52.170Z,102163.47
2022-10-16T08:16:21.344Z,102160.25
2022-10-16T08:18:48.732Z,102159.00
2022-10-16T08:21:20.380Z,102167.00
2022-10-16T08:23:53.061Z,102155.19
2022-10-16T08:26:24.749Z,102152.59
2022-10-16T08:28:53.185Z,102147.53
2022-10-16T08:31:21.066Z,102155.41
2022-10-16T08:33:48.973Z,102157.06
2022-10-16T08:36:16.329Z,102156.69
2022-10-16T08:38:45.090Z,102160.41
2022-10-16T08:41:32.269Z,102144.66
2022-10-16T08:44:15.766Z,102138.88
2022-10-16T08:46:53.013Z,102138.34
2022-10-16T08:49:25.771Z,102142.00
2022-10-16T08:51:53.231Z,102133.31
2022-10-16T08:54:32.435Z,102140.88
2022-10-16T08:57:08.758Z,102136.84
2022-10-16T08:59:38.267Z,102132.09
2022-10-16T09:02:13.445Z,102134.38
2022-10-16T09:04:44.246Z,102140.03
2022-10-16T09:07:11.690Z,102132.41
2022-10-16T09:09:45.257Z,102126.47
2022-10-16T09:12:20.683Z,102121.13
2022-10-16T09:15:07.853Z,102119.06
2022-10-16T09:17:36.524Z,102113.78
2022-10-16T09:20:05.438Z,102118.78
2022-10-16T09:22:33.221Z,102133.16
2022-10-16T09:25:00.899Z,102122.50
2022-10-16T09:27:28.800Z,102122.84
2022-10-16T09:29:59.669Z,102119.78
2022-10-16T09:32:28.000Z,102119.19
2022-10-16T09:34:57.393Z,102125.22
2022-10-16T09:37:27.401Z,102117.28
2022-10-16T09:39:56.041Z,102109.84
2022-10-16T09:42:33.163Z,102117.03
2022-10-16T09:45:00.588Z,102118.66
2022-10-16T09:47:29.058Z,102118.66
2022-10-16T09:49:57.241Z,102117.53
2022-10-16T09:52:25.594Z,102114.06
2022-10-16T09:54:53.781Z,102111.44
2022-10-16T09:57:21.822Z,102110.00
2022-10-16T09:59:52.666Z,102099.22
2022-10-16T10:02:40.425Z,102108.19
2022-10-16T10:05:07.972Z,102104.66
2022-10-16T10:07:37.137Z,102103.16
2022-10-16T10:10:05.555Z,102093.19
2022-10-16T10:12:37.573Z,102086.78
2022-10-16T10:15:06.044Z,102084.41
2022-10-16T10:17:33.879Z,102080.72
2022-10-16T10:20:02.083Z,102082.72
2022-10-16T10:22:41.120Z,102068.72
2022-10-16T10:25:14.978Z,102066.56
2022-10-16T10:27:54.974Z,102067.25
2022-10-16T10:30:26.564Z,102070.16
2022-10-16T10:32:54.146Z,102063.47
2022-10-16T10:35:37.877Z,102056.88
2022-10-16T10:38:28.461Z,102068.91
2022-10-16T10:40:55.834Z,102068.47
2022-10-16T10:43:29.099Z,102065.94
2022-10-16T10:45:59.747Z,102071.72
2022-10-16T10:51:05.418Z,102057.53
2022-10-16T10:53:43.131Z,102065.47
2022-10-16T10:56:17.754Z,102065.19
2022-10-16T10:58:57.251Z,102063.88
2022-10-16T11:01:34.019Z,102070.41
2022-10-16T11:04:05.959Z,102075.41
2022-10-16T11:06:34.608Z,102065.88
2022-10-16T11:09:11.663Z,102067.78
2022-10-16T11:11:41.793Z,102056.03
2022-10-16T11:14:19.978Z,102060.94
2022-10-16T11:16:55.111Z,102059.69
2022-10-16T11:19:42.950Z,102050.69
2022-10-16T11:22:31.827Z,102053.75
2022-10-16T11:25:01.092Z,102042.88
2022-10-16T11:27:52.283Z,102050.06
2022-10-16T11:30:27.291Z,102037.47
2022-10-16T11:33:27.719Z,102041.38
2022-10-16T11:35:58.173Z,102049.13
2022-10-16T11:38:28.504Z,102061.56
2022-10-16T11:40:58.192Z,102056.09
2022-10-16T11:43:37.383Z,102053.25
2022-10-16T11:46:25.056Z,102054.13
2022-10-16T11:49:03.637Z,102058.81
2022-10-16T11:51:44.531Z,102057.84
2022-10-16T11:54:11.961Z,102056.91
2022-10-16T11:56:39.876Z,102049.69
2022-10-16T11:59:09.585Z,102060.34
2022-10-16T12:01:42.114Z,102056.75
2022-10-16T12:04:28.782Z,102057.41
2022-10-16T12:06:59.080Z,102058.03
2022-10-16T12:09:31.635Z,102057.56
2022-10-16T12:12:00.929Z,102051.44
2022-10-16T12:14:28.442Z,102060.31
2022-10-16T12:16:56.842Z,102047.13
2022-10-16T12:19:25.112Z,102054.47
2022-10-16T12:21:53.982Z,102050.91
2022-10-16T12:24:35.379Z,102054.09
2022-10-16T12:27:03.700Z,102055.06
2022-10-16T12:29:34.195Z,102053.50
2022-10-16T12:32:02.185Z,102048.72
2022-10-16T12:34:35.687Z,102044.19
2022-10-16T12:37:21.780Z,102044.31
2022-10-16T12:39:49.482Z,102038.63
2022-10-16T12:42:29.908Z,102041.13
2022-10-16T12:44:58.010Z,102039.91
2022-10-16T12:47:36.383Z,102039.59
2022-10-16T12:50:09.043Z,102039.00
2022-10-16T12:52:39.158Z,102048.09
2022-10-16T12:55:07.085Z,102045.66
2022-10-16T12:57:39.044Z,102049.19
2022-10-16T13:00:09.567Z,102056.88
2022-10-16T13:02:39.899Z,102044.00
2022-10-16T13:05:16.349Z,102053.63
2022-10-16T13:07:46.782Z,102056.28
2022-10-16T13:10:14.209Z,102054.44
2022-10-16T13:13:00.789Z,102054.00
2022-10-16T13:15:41.108Z,102061.75
2022-10-16T13:18:14.740Z,102056.28
2022-10-16T13:20:48.352Z,102051.72
2022-10-16T13:23:28.220Z,102059.06
2022-10-16T13:26:01.585Z,102055.78
2022-10-16T13:28:31.642Z,102062.56
2022-10-16T13:30:59.845Z,102062.13
2022-10-16T13:33:27.800Z,102065.38
2022-10-16T13:35:56.423Z,102059.31
2022-10-16T13:38:28.236Z,102067.84
2022-10-16T13:41:19.164Z,102063.66
2022-10-16T13:43:52.905Z,102060.25
2022-10-16T13:46:21.026Z,102073.78
2022-10-16T13:49:05.204Z,102063.72
2022-10-16T13:51:33.096Z,102065.28
2022-10-16T13:54:00.672Z,102071.75
2022-10-16T13:56:31.907Z,102058.59
2022-10-16T13:59:00.112Z,102073.22
2022-10-16T14:01:45.711Z,102077.72
2022-10-16T14:04:13.484Z,102074.47
2022-10-16T14:06:47.276Z,102075.44
2022-10-16T14:09:14.702Z,102083.56
2022-10-16T14:11:54.773Z,102082.84
2022-10-16T14:14:22.705Z,102076.88
2022-10-16T14:16:51.834Z,102088.19
2022-10-16T14:19:21.973Z,102086.97
2022-10-16T14:21:50.210Z,102088.69
2022-10-16T14:24:26.232Z,102086.38
2022-10-16T14:26:56.037Z,102090.16
2022-10-16T14:29:23.971Z,102095.13
2022-10-16T14:32:06.653Z,102096.94
2022-10-16T14:34:37.865Z,102104.50
2022-10-16T14:37:22.681Z,102105.84
2022-10-16T14:39:52.897Z,102107.28
2022-10-16T14:42:20.896Z,102113.59
2022-10-16T14:44:48.395Z,102116.97
2022-10-16T14:47:17.314Z,102114.44
2022-10-16T14:49:44.724Z,102117.56
2022-10-16T14:52:13.080Z,102121.69
2022-10-16T14:54:40.479Z,102129.94
2022-10-16T14:57:15.194Z,102129.78
2022-10-16T14:59:42.797Z,102130.06
2022-10-16T15:02:23.297Z,102133.69
2022-10-16T15:04:50.785Z,102146.81
2022-10-16T15:07:18.219Z,102150.13
2022-10-16T15:09:49.107Z,102147.75
2022-10-16T15:12:20.048Z,102153.09
2022-10-16T15:14:47.434Z,102157.78
2022-10-16T15:17:17.434Z,102165.19
2022-10-16T15:19:47.444Z,102165.69
2022-10-16T15:22:15.701Z,102171.25
2022-10-16T15:24:43.159Z,102173.38
2022-10-16T15:27:10.682Z,102179.63
2022-10-16T15:29:38.033Z,102194.47
2022-10-16T15:32:05.639Z,102201.78
2022-10-16T15:34:32.908Z,102210.16
2022-10-16T15:37:00.949Z,102217.38
2022-10-16T15:39:28.260Z,102223.19
2022-10-16T15:41:55.801Z,102224.91
2022-10-16T15:44:31.058Z,102225.19
2022-10-16T15:46:59.663Z,102230.94
2022-10-16T15:49:27.003Z,102225.81
2022-10-16T15:51:56.063Z,102233.72
2022-10-16T15:54:23.952Z,102231.63
2022-10-16T15:56:51.459Z,102235.63
2022-10-16T15:59:22.471Z,102239.91
2022-10-16T16:01:50.162Z,102244.88
2022-10-16T16:04:42.719Z,102241.53
2022-10-16T16:07:08.446Z,102240.66
2022-10-16T16:09:36.208Z,102238.81
2022-10-16T16:12:04.050Z,102231.22
2022-10-16T16:14:33.858Z,102223.75
2022-10-16T16:17:03.264Z,102224.66
2022-10-16T16:19:30.909Z,102229.19
2022-10-16T16:22:00.009Z,102226.22
2022-10-16T16:24:28.082Z,102235.31
2022-10-16T16:26:55.525Z,102235.81
2022-10-16T16:29:23.410Z,102231.13
2022-10-16T16:31:51.123Z,102235.50
2022-10-16T16:34:18.511Z,102223.09
2022-10-16T16:36:56.593Z,102232.13
2022-10-16T16:39:27.323Z,102229.00
2022-10-16T16:41:56.309Z,102231.03
2022-10-16T16:44:23.644Z,102233.47
2022-10-16T16:46:51.207Z,102237.59
2022-10-16T16:49:18.653Z,102235.03
2022-10-16T16:51:46.647Z,102231.41
2022-10-16T16:54:15.175Z,102230.88
2022-10-16T16:56:46.899Z,102234.53
2022-10-16T16:59:15.095Z,102232.72
2022-10-16T17:01:43.815Z,102233.44
2022-10-16T17:04:11.529Z,102227.81
2022-10-16T17:06:38.990Z,102235.31
2022-10-16T17:09:07.651Z,102226.75
2022-10-16T17:11:34.994Z,102233.25
2022-10-16T17:14:09.212Z,102232.97
2022-10-16T17:16:40.451Z,102226.44
2022-10-16T17:19:08.467Z,102223.00
2022-10-16T17:21:35.912Z,102225.34
2022-10-16T17:24:03.899Z,102225.16
2022-10-16T17:26:32.291Z,102230.94
2022-10-16T17:29:01.502Z,102218.78
2022-10-16T17:31:32.775Z,102223.88
2022-10-16T17:34:00.302Z,102225.84
2022-10-16T17:36:29.799Z,102229.69
2022-10-16T17:39:01.917Z,102229.25
2022-10-16T17:41:29.686Z,102235.00
2022-10-16T17:43:57.461Z,102246.53
2022-10-16T17:46:25.356Z,102251.88
2022-10-16T17:48:54.666Z,102259.97
2022-10-16T17:51:24.050Z,102250.19
2022-10-16T17:53:52.290Z,102245.06
2022-10-16T17:56:24.371Z,102252.94
2022-10-16T17:58:52.295Z,102261.06
2022-10-16T18:01:20.965Z,102263.44
2022-10-16T18:03:55.564Z,102267.69
2022-10-16T18:06:25.593Z,102268.75
2022-10-16T18:08:54.316Z,102270.69
2022-10-16T18:11:23.653Z,102274.75
2022-10-16T18:13:54.697Z,102282.19
2022-10-16T18:16:22.100Z,102274.94
2022-10-16T18:18:52.261Z,102284.75
2022-10-16T18:21:20.378Z,102290.09
2022-10-16T18:23:51.890Z,102292.88
2022-10-16T18:26:20.353Z,102277.50
2022-10-16T18:28:48.925Z,102283.91
2022-10-16T18:31:17.840Z,102287.97
2022-10-16T18:33:48.729Z,102293.94
2022-10-16T18:36:16.693Z,102289.91
2022-10-16T18:38:44.168Z,102302.06
2022-10-16T18:41:11.495Z,102299.06
2022-10-16T18:43:40.679Z,102299.69
2022-10-16T18:46:08.884Z,102296.72
2022-10-16T18:48:38.182Z,102299.66
2022-10-16T18:51:09.148Z,102309.09
2022-10-16T18:53:37.483Z,102307.59
2022-10-16T18:56:06.824Z,102308.69
2022-10-16T18:58:35.333Z,102308.84
2022-10-16T19:01:03.850Z,102313.78
2022-10-16T19:03:34.381Z,102313.38
2022-10-16T19:06:02.920Z,102310.34
2022-10-16T19:08:33.924Z,102314.16
2022-10-16T19:11:22.496Z,102322.06
2022-10-16T19:13:50.926Z,102322.06
2022-10-16T19:16:21.485Z,102324.44
2022-10-16T19:18:49.627Z,102324.34
2022-10-16T19:21:18.738Z,102329.44
2022-10-16T19:23:47.263Z,102324.59
2022-10-16T19:26:15.589Z,102332.28
2022-10-16T19:28:45.759Z,102329.47
2022-10-16T19:31:15.332Z,102329.41
2022-10-16T19:33:42.795Z,102321.72
2022-10-16T19:36:10.323Z,102322.19
2022-10-16T19:38:38.175Z,102330.03
2022-10-16T19:41:08.849Z,102335.53
2022-10-16T19:43:36.334Z,102347.06
2022-10-16T19:46:08.541Z,102350.13
2022-10-16T19:48:36.563Z,102351.00
2022-10-16T19:51:04.362Z,102347.41
2022-10-16T19:53:32.463Z,102350.16
2022-10-16T19:56:00.552Z,102347.31
2022-10-16T19:58:28.107Z,102342.75
2022-10-16T20:00:55.779Z,102345.66
2022-10-16T20:03:23.701Z,102343.53
2022-10-16T20:05:52.109Z,102352.84
2022-10-16T20:08:21.745Z,102353.84
2022-10-16T20:10:52.546Z,102349.47
2022-10-16T20:13:20.014Z,102357.63
2022-10-16T20:15:48.713Z,102367.47
2022-10-16T20:18:17.520Z,102364.66
2022-10-16T20:20:45.661Z,102375.00
2022-10-16T20:23:13.096Z,102381.38
2022-10-16T20:25:41.165Z,102372.56
2022-10-16T20:28:09.298Z,102379.53
2022-10-16T20:30:37.207Z,102384.56
2022-10-16T20:33:05.438Z,102385.19
2022-10-16T20:35:36.827Z,102390.22
2022-10-16T20:38:04.190Z,102392.75
2022-10-16T20:40:34.216Z,102389.41
2022-10-16T20:43:02.249Z,102391.91
2022-10-16T20:45:30.202Z,102395.72
2022-10-16T20:47:57.867Z,102386.53
2022-10-16T20:50:25.793Z,102383.00
2022-10-16T20:52:53.200Z,102381.31
2022-10-16T20:55:20.691Z,102378.13
2022-10-16T20:57:48.219Z,102382.63
2022-10-16T21:00:15.827Z,102382.88
2022-10-16T21:02:43.375Z,102386.44
2022-10-16T21:05:11.005Z,102388.06
2022-10-16T21:07:38.400Z,102380.69
2022-10-16T21:10:06.319Z,102374.28
2022-10-16T21:12:33.937Z,102369.22
2022-10-16T21:15:14.569Z,102362.88
2022-10-16T21:17:42.756Z,102353.66
2022-10-16T21:20:10.548Z,102346.03
2022-10-16T21:22:38.172Z,102337.53
2022-10-16T21:25:05.912Z,102337.09
2022-10-16T21:27:39.667Z,102337.88
2022-10-16T21:30:07.853Z,102331.47
2022-10-16T21:32:38.608Z,102337.59
2022-10-16T21:35:06.278Z,102334.59
2022-10-16T21:37:34.497Z,102334.91
2022-10-16T21:40:02.135Z,102339.03
2022-10-16T21:42:31.028Z,102341.72
2022-10-16T21:44:58.573Z,102348.44
2022-10-16T21:47:26.345Z,102342.78
2022-10-16T21:49:54.469Z,102339.53
2022-10-16T21:52:21.974Z,102342.72
2022-10-16T21:54:50.619Z,102348.31
2022-10-16T21:57:17.952Z,102352.41
2022-10-16T21:59:49.487Z,102347.56
2022-10-16T22:02:17.444Z,102350.31
2022-10-16T22:04:45.819Z,102354.31
2022-10-16T22:07:13.158Z,102355.00
2022-10-16T22:09:40.829Z,102357.94
2022-10-16T22:12:08.271Z,102361.41
2022-10-16T22:14:39.662Z,102367.97
2022-10-16T22:17:07.563Z,102376.72
2022-10-16T22:19:36.851Z,102371.75
2022-10-16T22:22:04.304Z,102378.19
2022-10-16T22:27:04.608Z,102379.41
2022-10-16T22:29:32.265Z,102374.19
2022-10-16T22:32:03.436Z,102382.28
2022-10-16T22:34:31.702Z,102385.13
2022-10-16T22:36:59.094Z,102384.81
2022-10-16T22:39:28.285Z,102384.75
2022-10-16T22:41:55.600Z,102382.81
2022-10-16T22:44:23.127Z,102384.69
2022-10-16T22:46:50.621Z,102386.91
2022-10-16T22:49:20.442Z,102391.56
2022-10-16T22:51:48.080Z,102393.81
2022-10-16T22:54:15.916Z,102409.34
2022-10-16T22:56:43.604Z,102407.66
2022-10-16T22:59:11.267Z,102408.91
2022-10-16T23:01:40.635Z,102409.06
2022-10-16T23:04:08.304Z,102403.41
2022-10-16T23:06:35.910Z,102410.78
2022-10-16T23:09:04.086Z,102413.19
2022-10-16T23:11:33.389Z,102417.03
2022-10-16T23:14:01.918Z,102419.81
2022-10-16T23:16:32.033Z,102412.91
2022-10-16T23:19:01.515Z,102410.13
2022-10-16T23:21:29.139Z,102414.75
2022-10-16T23:23:59.180Z,102419.19
2022-10-16T23:26:26.672Z,102429.09
2022-10-16T23:28:55.788Z,102432.22
2022-10-16T23:31:23.401Z,102436.22
2022-10-16T23:33:51.410Z,102434.84
2022-10-16T23:36:19.871Z,102436.72
2022-10-16T23:38:47.738Z,102434.97
2022-10-16T23:41:15.233Z,102435.00
2022-10-16T23:43:43.400Z,102436.53
2022-10-16T23:46:11.165Z,102443.53
2022-10-16T23:48:39.217Z,102436.78
2022-10-16T23:51:07.537Z,102449.25
2022-10-16T23:53:36.281Z,102444.59
2022-10-16T23:56:03.773Z,102452.97
2022-10-16T23:58:31.368Z,102448.06
